sensor_id;sensor_type;location;lat;lon;timestamp;P1;durP1;ratioP1;P2;durP2;ratioP2
2213;SDS011;1113;42.018;23.986;2023-12-29T00:00:16;82.95;;;47.25;;
2213;SDS011;1113;42.018;23.986;2023-12-29T00:02:44;93.45;;;47.88;;
2213;SDS011;1113;42.018;23.986;2023-12-29T00:05:12;92.53;;;50.15;;
2213;SDS011;1113;42.018;23.986;2023-12-29T00:07:41;80.82;;;47.85;;
2213;SDS011;1113;42.018;23.986;2023-12-29T00:10:08;84.30;;;48.67;;
2213;SDS011;1113;42.018;23.986;2023-12-29T00:12:36;91.80;;;48.63;;
2213;SDS011;1113;42.018;23.986;2023-12-29T00:15:04;83.63;;;49.80;;
2213;SDS011;1113;42.018;23.986;2023-12-29T00:17:32;91.82;;;46.22;;
2213;SDS011;1113;42.018;23.986;2023-12-29T00:20:02;77.68;;;45.20;;
2213;SDS011;1113;42.018;23.986;2023-12-29T00:22:30;90.90;;;49.63;;
2213;SDS011;1113;42.018;23.986;2023-12-29T00:24:59;85.75;;;50.03;;
2213;SDS011;1113;42.018;23.986;2023-12-29T00:27:28;83.97;;;48.53;;
2213;SDS011;1113;42.018;23.986;2023-12-29T00:29:55;80.40;;;44.30;;
2213;SDS011;1113;42.018;23.986;2023-12-29T00:32:23;86.10;;;46.33;;
2213;SDS011;1113;42.018;23.986;2023-12-29T00:34:50;91.93;;;48.65;;
2213;SDS011;1113;42.018;23.986;2023-12-29T00:37:18;75.32;;;43.50;;
2213;SDS011;1113;42.018;23.986;2023-12-29T00:39:45;71.38;;;40.47;;
2213;SDS011;1113;42.018;23.986;2023-12-29T00:42:14;83.70;;;45.53;;
2213;SDS011;1113;42.018;23.986;2023-12-29T00:44:42;66.65;;;41.42;;
2213;SDS011;1113;42.018;23.986;2023-12-29T00:47:09;68.85;;;37.60;;
2213;SDS011;1113;42.018;23.986;2023-12-29T00:49:38;68.32;;;39.88;;
2213;SDS011;1113;42.018;23.986;2023-12-29T00:52:06;54.75;;;34.65;;
2213;SDS011;1113;42.018;23.986;2023-12-29T00:54:34;65.47;;;40.72;;
2213;SDS011;1113;42.018;23.986;2023-12-29T00:57:01;62.70;;;36.58;;
2213;SDS011;1113;42.018;23.986;2023-12-29T00:59:30;75.57;;;43.28;;
2213;SDS011;1113;42.018;23.986;2023-12-29T01:01:58;66.28;;;41.70;;
2213;SDS011;1113;42.018;23.986;2023-12-29T01:04:25;59.50;;;38.03;;
2213;SDS011;1113;42.018;23.986;2023-12-29T01:06:53;61.08;;;38.58;;
2213;SDS011;1113;42.018;23.986;2023-12-29T01:09:20;69.25;;;37.33;;
2213;SDS011;1113;42.018;23.986;2023-12-29T01:11:48;65.45;;;41.00;;
2213;SDS011;1113;42.018;23.986;2023-12-29T01:14:15;67.57;;;40.83;;
2213;SDS011;1113;42.018;23.986;2023-12-29T01:16:45;70.25;;;38.88;;
2213;SDS011;1113;42.018;23.986;2023-12-29T01:19:12;76.40;;;41.42;;
2213;SDS011;1113;42.018;23.986;2023-12-29T01:21:40;71.55;;;36.58;;
2213;SDS011;1113;42.018;23.986;2023-12-29T01:24:08;60.92;;;35.05;;
2213;SDS011;1113;42.018;23.986;2023-12-29T01:26:36;59.58;;;35.03;;
2213;SDS011;1113;42.018;23.986;2023-12-29T01:29:05;65.93;;;38.58;;
2213;SDS011;1113;42.018;23.986;2023-12-29T01:31:32;65.20;;;39.95;;
2213;SDS011;1113;42.018;23.986;2023-12-29T01:34:01;59.25;;;35.03;;
2213;SDS011;1113;42.018;23.986;2023-12-29T01:36:28;66.97;;;39.47;;
2213;SDS011;1113;42.018;23.986;2023-12-29T01:38:56;65.00;;;37.35;;
2213;SDS011;1113;42.018;23.986;2023-12-29T01:41:23;75.72;;;43.72;;
2213;SDS011;1113;42.018;23.986;2023-12-29T01:46:48;84.95;;;45.08;;
2213;SDS011;1113;42.018;23.986;2023-12-29T01:49:19;84.30;;;46.28;;
2213;SDS011;1113;42.018;23.986;2023-12-29T01:51:48;79.15;;;45.13;;
2213;SDS011;1113;42.018;23.986;2023-12-29T01:54:18;76.60;;;42.78;;
2213;SDS011;1113;42.018;23.986;2023-12-29T01:56:46;74.75;;;42.10;;
2213;SDS011;1113;42.018;23.986;2023-12-29T01:59:16;70.03;;;37.42;;
2213;SDS011;1113;42.018;23.986;2023-12-29T02:01:45;72.85;;;39.25;;
2213;SDS011;1113;42.018;23.986;2023-12-29T02:04:13;62.65;;;35.63;;
2213;SDS011;1113;42.018;23.986;2023-12-29T02:06:46;57.78;;;35.47;;
2213;SDS011;1113;42.018;23.986;2023-12-29T02:09:13;52.25;;;31.60;;
2213;SDS011;1113;42.018;23.986;2023-12-29T02:11:44;60.72;;;35.38;;
2213;SDS011;1113;42.018;23.986;2023-12-29T02:14:11;54.65;;;28.92;;
2213;SDS011;1113;42.018;23.986;2023-12-29T02:16:42;51.53;;;30.85;;
2213;SDS011;1113;42.018;23.986;2023-12-29T02:19:21;54.20;;;33.55;;
2213;SDS011;1113;42.018;23.986;2023-12-29T02:22:00;60.40;;;36.05;;
2213;SDS011;1113;42.018;23.986;2023-12-29T02:24:27;42.65;;;27.33;;
2213;SDS011;1113;42.018;23.986;2023-12-29T02:26:57;42.45;;;26.80;;
2213;SDS011;1113;42.018;23.986;2023-12-29T02:29:44;57.00;;;33.30;;
2213;SDS011;1113;42.018;23.986;2023-12-29T02:32:19;54.78;;;35.03;;
2213;SDS011;1113;42.018;23.986;2023-12-29T02:34:49;56.88;;;36.47;;
2213;SDS011;1113;42.018;23.986;2023-12-29T02:37:19;68.82;;;39.67;;
2213;SDS011;1113;42.018;23.986;2023-12-29T02:39:47;79.93;;;40.10;;
2213;SDS011;1113;42.018;23.986;2023-12-29T02:42:16;66.93;;;38.63;;
2213;SDS011;1113;42.018;23.986;2023-12-29T02:44:44;69.20;;;37.20;;
2213;SDS011;1113;42.018;23.986;2023-12-29T02:47:11;65.30;;;38.17;;
2213;SDS011;1113;42.018;23.986;2023-12-29T02:49:39;61.95;;;38.35;;
2213;SDS011;1113;42.018;23.986;2023-12-29T02:52:06;82.07;;;42.72;;
2213;SDS011;1113;42.018;23.986;2023-12-29T02:54:34;73.35;;;41.10;;
2213;SDS011;1113;42.018;23.986;2023-12-29T02:57:01;65.00;;;39.80;;
2213;SDS011;1113;42.018;23.986;2023-12-29T02:59:30;69.88;;;40.70;;
2213;SDS011;1113;42.018;23.986;2023-12-29T03:01:57;67.38;;;40.80;;
2213;SDS011;1113;42.018;23.986;2023-12-29T03:04:24;65.15;;;40.08;;
2213;SDS011;1113;42.018;23.986;2023-12-29T03:06:51;65.55;;;39.38;;
2213;SDS011;1113;42.018;23.986;2023-12-29T03:09:19;68.45;;;40.55;;
2213;SDS011;1113;42.018;23.986;2023-12-29T03:11:46;71.18;;;40.78;;
2213;SDS011;1113;42.018;23.986;2023-12-29T03:14:14;65.55;;;38.63;;
2213;SDS011;1113;42.018;23.986;2023-12-29T03:16:43;67.43;;;40.33;;
2213;SDS011;1113;42.018;23.986;2023-12-29T03:19:11;63.53;;;36.83;;
2213;SDS011;1113;42.018;23.986;2023-12-29T03:21:38;60.88;;;38.35;;
2213;SDS011;1113;42.018;23.986;2023-12-29T03:24:05;80.95;;;44.30;;
2213;SDS011;1113;42.018;23.986;2023-12-29T03:26:33;69.45;;;41.45;;
2213;SDS011;1113;42.018;23.986;2023-12-29T03:29:00;67.53;;;42.22;;
2213;SDS011;1113;42.018;23.986;2023-12-29T03:31:27;74.25;;;42.67;;
2213;SDS011;1113;42.018;23.986;2023-12-29T03:33:56;67.72;;;42.58;;
2213;SDS011;1113;42.018;23.986;2023-12-29T03:36:23;67.38;;;40.35;;
2213;SDS011;1113;42.018;23.986;2023-12-29T03:38:50;58.65;;;38.20;;
2213;SDS011;1113;42.018;23.986;2023-12-29T03:41:18;63.78;;;38.50;;
2213;SDS011;1113;42.018;23.986;2023-12-29T03:43:45;49.28;;;32.67;;
2213;SDS011;1113;42.018;23.986;2023-12-29T03:46:16;53.58;;;34.13;;
2213;SDS011;1113;42.018;23.986;2023-12-29T03:48:44;56.47;;;35.53;;
2213;SDS011;1113;42.018;23.986;2023-12-29T03:51:13;56.67;;;35.08;;
2213;SDS011;1113;42.018;23.986;2023-12-29T03:53:41;61.35;;;34.33;;
2213;SDS011;1113;42.018;23.986;2023-12-29T03:56:13;52.67;;;34.72;;
2213;SDS011;1113;42.018;23.986;2023-12-29T03:58:41;58.97;;;34.95;;
2213;SDS011;1113;42.018;23.986;2023-12-29T04:01:09;68.22;;;39.40;;
2213;SDS011;1113;42.018;23.986;2023-12-29T04:03:37;60.92;;;36.90;;
2213;SDS011;1113;42.018;23.986;2023-12-29T04:06:05;63.38;;;37.55;;
2213;SDS011;1113;42.018;23.986;2023-12-29T04:08:34;54.75;;;36.55;;
2213;SDS011;1113;42.018;23.986;2023-12-29T04:11:02;50.30;;;34.30;;
2213;SDS011;1113;42.018;23.986;2023-12-29T04:13:30;58.22;;;35.63;;
2213;SDS011;1113;42.018;23.986;2023-12-29T04:15:58;58.03;;;36.08;;
2213;SDS011;1113;42.018;23.986;2023-12-29T04:18:25;61.20;;;38.40;;
2213;SDS011;1113;42.018;23.986;2023-12-29T04:20:53;68.07;;;36.97;;
2213;SDS011;1113;42.018;23.986;2023-12-29T04:23:21;60.70;;;35.70;;
2213;SDS011;1113;42.018;23.986;2023-12-29T04:25:50;58.17;;;33.75;;
2213;SDS011;1113;42.018;23.986;2023-12-29T04:28:17;52.88;;;33.28;;
2213;SDS011;1113;42.018;23.986;2023-12-29T04:30:44;53.25;;;32.20;;
2213;SDS011;1113;42.018;23.986;2023-12-29T04:33:12;53.92;;;30.67;;
2213;SDS011;1113;42.018;23.986;2023-12-29T04:35:39;58.47;;;32.80;;
2213;SDS011;1113;42.018;23.986;2023-12-29T04:38:08;43.40;;;28.95;;
2213;SDS011;1113;42.018;23.986;2023-12-29T04:40:36;53.45;;;31.70;;
2213;SDS011;1113;42.018;23.986;2023-12-29T04:43:05;63.03;;;37.47;;
2213;SDS011;1113;42.018;23.986;2023-12-29T04:45:32;64.55;;;37.20;;
2213;SDS011;1113;42.018;23.986;2023-12-29T04:48:00;61.80;;;38.65;;
2213;SDS011;1113;42.018;23.986;2023-12-29T04:50:27;58.00;;;34.63;;
2213;SDS011;1113;42.018;23.986;2023-12-29T04:52:54;71.88;;;42.40;;
2213;SDS011;1113;42.018;23.986;2023-12-29T04:55:22;93.47;;;48.92;;
2213;SDS011;1113;42.018;23.986;2023-12-29T04:57:49;80.50;;;49.67;;
2213;SDS011;1113;42.018;23.986;2023-12-29T05:00:18;80.07;;;45.17;;
2213;SDS011;1113;42.018;23.986;2023-12-29T05:02:45;75.78;;;45.45;;
2213;SDS011;1113;42.018;23.986;2023-12-29T05:05:13;81.43;;;44.45;;
2213;SDS011;1113;42.018;23.986;2023-12-29T05:07:40;77.30;;;48.20;;
2213;SDS011;1113;42.018;23.986;2023-12-29T05:10:08;80.20;;;46.15;;
2213;SDS011;1113;42.018;23.986;2023-12-29T05:12:35;101.05;;;53.05;;
2213;SDS011;1113;42.018;23.986;2023-12-29T05:15:03;78.60;;;45.20;;
2213;SDS011;1113;42.018;23.986;2023-12-29T05:17:33;70.50;;;42.85;;
2213;SDS011;1113;42.018;23.986;2023-12-29T05:20:01;79.68;;;45.17;;
2213;SDS011;1113;42.018;23.986;2023-12-29T05:22:28;73.93;;;42.58;;
2213;SDS011;1113;42.018;23.986;2023-12-29T05:24:56;73.63;;;43.08;;
2213;SDS011;1113;42.018;23.986;2023-12-29T05:27:25;78.35;;;45.67;;
2213;SDS011;1113;42.018;23.986;2023-12-29T05:29:53;94.10;;;53.25;;
2213;SDS011;1113;42.018;23.986;2023-12-29T05:32:20;73.00;;;44.70;;
2213;SDS011;1113;42.018;23.986;2023-12-29T05:34:49;73.78;;;39.25;;
2213;SDS011;1113;42.018;23.986;2023-12-29T05:37:17;81.15;;;43.75;;
2213;SDS011;1113;42.018;23.986;2023-12-29T05:39:44;69.70;;;40.03;;
2213;SDS011;1113;42.018;23.986;2023-12-29T05:42:11;71.13;;;42.28;;
2213;SDS011;1113;42.018;23.986;2023-12-29T05:44:39;74.82;;;43.55;;
2213;SDS011;1113;42.018;23.986;2023-12-29T05:47:06;81.03;;;47.25;;
2213;SDS011;1113;42.018;23.986;2023-12-29T05:49:34;89.13;;;50.05;;
2213;SDS011;1113;42.018;23.986;2023-12-29T05:52:06;70.50;;;41.20;;
2213;SDS011;1113;42.018;23.986;2023-12-29T05:54:33;75.40;;;43.80;;
2213;SDS011;1113;42.018;23.986;2023-12-29T05:57:03;82.47;;;43.97;;
2213;SDS011;1113;42.018;23.986;2023-12-29T05:59:30;79.53;;;47.17;;
2213;SDS011;1113;42.018;23.986;2023-12-29T06:01:58;72.88;;;43.13;;
2213;SDS011;1113;42.018;23.986;2023-12-29T06:04:26;81.20;;;42.58;;
2213;SDS011;1113;42.018;23.986;2023-12-29T06:06:53;84.95;;;48.22;;
2213;SDS011;1113;42.018;23.986;2023-12-29T06:09:22;303.70;;;138.07;;
2213;SDS011;1113;42.018;23.986;2023-12-29T06:11:50;136.52;;;75.57;;
2213;SDS011;1113;42.018;23.986;2023-12-29T06:14:17;142.25;;;74.28;;
2213;SDS011;1113;42.018;23.986;2023-12-29T06:16:45;131.95;;;70.53;;
2213;SDS011;1113;42.018;23.986;2023-12-29T06:19:12;131.68;;;69.35;;
2213;SDS011;1113;42.018;23.986;2023-12-29T06:21:40;115.07;;;60.38;;
2213;SDS011;1113;42.018;23.986;2023-12-29T06:24:08;77.35;;;48.42;;
2213;SDS011;1113;42.018;23.986;2023-12-29T06:26:38;83.07;;;44.83;;
2213;SDS011;1113;42.018;23.986;2023-12-29T06:29:08;127.50;;;77.78;;
2213;SDS011;1113;42.018;23.986;2023-12-29T06:31:35;117.57;;;63.28;;
2213;SDS011;1113;42.018;23.986;2023-12-29T06:34:07;130.05;;;68.88;;
2213;SDS011;1113;42.018;23.986;2023-12-29T06:36:35;160.35;;;88.70;;
2213;SDS011;1113;42.018;23.986;2023-12-29T06:39:02;168.35;;;86.45;;
2213;SDS011;1113;42.018;23.986;2023-12-29T06:41:30;154.45;;;91.03;;
2213;SDS011;1113;42.018;23.986;2023-12-29T06:43:59;198.50;;;102.80;;
2213;SDS011;1113;42.018;23.986;2023-12-29T06:46:27;173.82;;;102.50;;
2213;SDS011;1113;42.018;23.986;2023-12-29T06:48:54;223.85;;;122.40;;
2213;SDS011;1113;42.018;23.986;2023-12-29T06:51:22;195.50;;;115.50;;
2213;SDS011;1113;42.018;23.986;2023-12-29T06:53:49;207.38;;;118.70;;
2213;SDS011;1113;42.018;23.986;2023-12-29T06:56:17;196.88;;;112.13;;
2213;SDS011;1113;42.018;23.986;2023-12-29T06:58:44;200.02;;;117.22;;
2213;SDS011;1113;42.018;23.986;2023-12-29T07:01:14;207.02;;;117.28;;
2213;SDS011;1113;42.018;23.986;2023-12-29T07:03:41;189.30;;;116.28;;
2213;SDS011;1113;42.018;23.986;2023-12-29T07:06:09;186.90;;;109.18;;
2213;SDS011;1113;42.018;23.986;2023-12-29T07:08:37;169.18;;;107.68;;
2213;SDS011;1113;42.018;23.986;2023-12-29T07:11:08;150.27;;;94.57;;
2213;SDS011;1113;42.018;23.986;2023-12-29T07:13:37;160.43;;;97.68;;
2213;SDS011;1113;42.018;23.986;2023-12-29T07:16:05;146.85;;;95.57;;
2213;SDS011;1113;42.018;23.986;2023-12-29T07:18:35;154.98;;;93.90;;
2213;SDS011;1113;42.018;23.986;2023-12-29T07:21:03;149.15;;;95.10;;
2213;SDS011;1113;42.018;23.986;2023-12-29T07:23:31;157.55;;;94.18;;
2213;SDS011;1113;42.018;23.986;2023-12-29T07:25:59;167.88;;;102.03;;
2213;SDS011;1113;42.018;23.986;2023-12-29T07:28:26;188.18;;;111.50;;
2213;SDS011;1113;42.018;23.986;2023-12-29T07:30:53;196.68;;;115.68;;
2213;SDS011;1113;42.018;23.986;2023-12-29T07:33:21;187.18;;;114.07;;
2213;SDS011;1113;42.018;23.986;2023-12-29T07:35:51;180.48;;;117.25;;
2213;SDS011;1113;42.018;23.986;2023-12-29T07:38:18;184.25;;;109.15;;
2213;SDS011;1113;42.018;23.986;2023-12-29T07:40:45;175.35;;;104.70;;
2213;SDS011;1113;42.018;23.986;2023-12-29T07:43:13;176.75;;;107.18;;
2213;SDS011;1113;42.018;23.986;2023-12-29T07:45:40;168.77;;;105.15;;
2213;SDS011;1113;42.018;23.986;2023-12-29T07:48:08;164.63;;;94.53;;
2213;SDS011;1113;42.018;23.986;2023-12-29T07:50:35;165.38;;;99.28;;
2213;SDS011;1113;42.018;23.986;2023-12-29T07:53:04;147.30;;;90.38;;
2213;SDS011;1113;42.018;23.986;2023-12-29T07:55:32;143.70;;;86.90;;
2213;SDS011;1113;42.018;23.986;2023-12-29T07:58:03;135.93;;;86.05;;
2213;SDS011;1113;42.018;23.986;2023-12-29T08:00:31;142.05;;;86.57;;
2213;SDS011;1113;42.018;23.986;2023-12-29T08:02:58;140.10;;;85.97;;
2213;SDS011;1113;42.018;23.986;2023-12-29T08:05:25;89.10;;;52.95;;
2213;SDS011;1113;42.018;23.986;2023-12-29T08:07:52;91.65;;;58.60;;
2213;SDS011;1113;42.018;23.986;2023-12-29T08:10:21;83.45;;;56.53;;
2213;SDS011;1113;42.018;23.986;2023-12-29T08:12:49;77.78;;;49.67;;
2213;SDS011;1113;42.018;23.986;2023-12-29T08:15:16;65.65;;;46.83;;
2213;SDS011;1113;42.018;23.986;2023-12-29T08:17:43;69.80;;;45.20;;
2213;SDS011;1113;42.018;23.986;2023-12-29T08:20:11;61.33;;;44.10;;
2213;SDS011;1113;42.018;23.986;2023-12-29T08:22:38;63.17;;;46.00;;
2213;SDS011;1113;42.018;23.986;2023-12-29T08:25:06;57.63;;;43.97;;
2213;SDS011;1113;42.018;23.986;2023-12-29T08:27:35;56.27;;;41.90;;
2213;SDS011;1113;42.018;23.986;2023-12-29T08:30:03;47.60;;;37.70;;
2213;SDS011;1113;42.018;23.986;2023-12-29T08:32:31;49.37;;;41.03;;
2213;SDS011;1113;42.018;23.986;2023-12-29T08:34:59;51.13;;;45.43;;
2213;SDS011;1113;42.018;23.986;2023-12-29T08:37:26;47.07;;;41.97;;
2213;SDS011;1113;42.018;23.986;2023-12-29T08:39:54;45.13;;;38.90;;
2213;SDS011;1113;42.018;23.986;2023-12-29T08:42:21;43.40;;;38.97;;
2213;SDS011;1113;42.018;23.986;2023-12-29T08:44:50;39.07;;;34.90;;
2213;SDS011;1113;42.018;23.986;2023-12-29T08:47:17;35.60;;;32.10;;
2213;SDS011;1113;42.018;23.986;2023-12-29T08:49:45;38.37;;;34.37;;
2213;SDS011;1113;42.018;23.986;2023-12-29T08:52:14;43.77;;;39.37;;
2213;SDS011;1113;42.018;23.986;2023-12-29T08:54:41;40.20;;;36.00;;
2213;SDS011;1113;42.018;23.986;2023-12-29T08:57:08;28.27;;;25.17;;
2213;SDS011;1113;42.018;23.986;2023-12-29T08:59:35;26.07;;;23.37;;
2213;SDS011;1113;42.018;23.986;2023-12-29T09:02:04;23.37;;;20.27;;
2213;SDS011;1113;42.018;23.986;2023-12-29T09:04:32;27.17;;;23.87;;
2213;SDS011;1113;42.018;23.986;2023-12-29T09:06:59;32.50;;;26.33;;
2213;SDS011;1113;42.018;23.986;2023-12-29T09:09:26;36.50;;;27.53;;
2213;SDS011;1113;42.018;23.986;2023-12-29T09:11:53;29.50;;;22.90;;
2213;SDS011;1113;42.018;23.986;2023-12-29T09:14:21;30.23;;;23.43;;
2213;SDS011;1113;42.018;23.986;2023-12-29T09:16:48;31.07;;;23.50;;
2213;SDS011;1113;42.018;23.986;2023-12-29T09:19:17;37.67;;;26.87;;
2213;SDS011;1113;42.018;23.986;2023-12-29T09:21:44;38.70;;;27.73;;
2213;SDS011;1113;42.018;23.986;2023-12-29T09:24:11;32.77;;;25.70;;
2213;SDS011;1113;42.018;23.986;2023-12-29T09:26:39;28.17;;;21.43;;
2213;SDS011;1113;42.018;23.986;2023-12-29T09:29:06;26.33;;;19.43;;
2213;SDS011;1113;42.018;23.986;2023-12-29T09:31:33;31.70;;;21.93;;
2213;SDS011;1113;42.018;23.986;2023-12-29T09:34:01;31.70;;;23.00;;
2213;SDS011;1113;42.018;23.986;2023-12-29T09:36:30;33.10;;;24.20;;
2213;SDS011;1113;42.018;23.986;2023-12-29T09:38:57;29.70;;;22.13;;
2213;SDS011;1113;42.018;23.986;2023-12-29T09:41:24;25.37;;;19.23;;
2213;SDS011;1113;42.018;23.986;2023-12-29T09:43:56;36.83;;;25.30;;
2213;SDS011;1113;42.018;23.986;2023-12-29T09:46:24;31.73;;;20.47;;
2213;SDS011;1113;42.018;23.986;2023-12-29T09:48:53;26.60;;;18.27;;
2213;SDS011;1113;42.018;23.986;2023-12-29T09:51:24;19.90;;;14.20;;
2213;SDS011;1113;42.018;23.986;2023-12-29T09:53:53;25.30;;;16.13;;
2213;SDS011;1113;42.018;23.986;2023-12-29T09:56:23;23.47;;;16.93;;
2213;SDS011;1113;42.018;23.986;2023-12-29T09:58:51;25.47;;;17.17;;
2213;SDS011;1113;42.018;23.986;2023-12-29T10:01:19;27.23;;;18.37;;
2213;SDS011;1113;42.018;23.986;2023-12-29T10:03:48;25.90;;;19.17;;
2213;SDS011;1113;42.018;23.986;2023-12-29T10:06:16;33.33;;;23.63;;
2213;SDS011;1113;42.018;23.986;2023-12-29T10:08:47;31.50;;;23.00;;
2213;SDS011;1113;42.018;23.986;2023-12-29T10:11:18;32.80;;;24.17;;
2213;SDS011;1113;42.018;23.986;2023-12-29T10:13:49;33.60;;;25.40;;
2213;SDS011;1113;42.018;23.986;2023-12-29T10:16:22;35.13;;;24.13;;
2213;SDS011;1113;42.018;23.986;2023-12-29T10:18:55;35.77;;;24.83;;
2213;SDS011;1113;42.018;23.986;2023-12-29T10:21:34;38.13;;;26.60;;
2213;SDS011;1113;42.018;23.986;2023-12-29T10:24:09;32.37;;;22.67;;
2213;SDS011;1113;42.018;23.986;2023-12-29T10:26:43;24.40;;;19.13;;
2213;SDS011;1113;42.018;23.986;2023-12-29T10:29:11;27.10;;;18.07;;
2213;SDS011;1113;42.018;23.986;2023-12-29T10:31:38;27.03;;;17.67;;
2213;SDS011;1113;42.018;23.986;2023-12-29T10:36:55;29.63;;;22.40;;
2213;SDS011;1113;42.018;23.986;2023-12-29T10:39:22;31.20;;;22.90;;
2213;SDS011;1113;42.018;23.986;2023-12-29T10:41:51;38.67;;;23.90;;
2213;SDS011;1113;42.018;23.986;2023-12-29T10:44:31;52.83;;;36.07;;
2213;SDS011;1113;42.018;23.986;2023-12-29T10:46:58;45.37;;;32.60;;
2213;SDS011;1113;42.018;23.986;2023-12-29T10:49:33;46.00;;;32.57;;
2213;SDS011;1113;42.018;23.986;2023-12-29T10:52:02;40.07;;;28.90;;
2213;SDS011;1113;42.018;23.986;2023-12-29T10:54:38;33.83;;;24.97;;
2213;SDS011;1113;42.018;23.986;2023-12-29T10:57:07;39.77;;;25.33;;
2213;SDS011;1113;42.018;23.986;2023-12-29T10:59:37;40.17;;;28.43;;
2213;SDS011;1113;42.018;23.986;2023-12-29T11:02:04;58.30;;;37.60;;
2213;SDS011;1113;42.018;23.986;2023-12-29T11:04:33;55.20;;;37.27;;
2213;SDS011;1113;42.018;23.986;2023-12-29T11:07:01;63.80;;;42.60;;
2213;SDS011;1113;42.018;23.986;2023-12-29T11:09:28;52.80;;;36.77;;
2213;SDS011;1113;42.018;23.986;2023-12-29T11:11:57;49.30;;;36.87;;
2213;SDS011;1113;42.018;23.986;2023-12-29T11:14:28;50.27;;;35.33;;
2213;SDS011;1113;42.018;23.986;2023-12-29T11:16:56;48.83;;;35.30;;
2213;SDS011;1113;42.018;23.986;2023-12-29T11:19:23;51.00;;;37.90;;
2213;SDS011;1113;42.018;23.986;2023-12-29T11:21:51;41.37;;;30.43;;
2213;SDS011;1113;42.018;23.986;2023-12-29T11:24:19;36.27;;;25.60;;
2213;SDS011;1113;42.018;23.986;2023-12-29T11:26:46;25.03;;;16.73;;
2213;SDS011;1113;42.018;23.986;2023-12-29T11:29:16;20.13;;;15.90;;
2213;SDS011;1113;42.018;23.986;2023-12-29T11:31:45;15.50;;;11.23;;
2213;SDS011;1113;42.018;23.986;2023-12-29T11:34:16;9.67;;;7.87;;
2213;SDS011;1113;42.018;23.986;2023-12-29T11:36:47;17.03;;;9.83;;
2213;SDS011;1113;42.018;23.986;2023-12-29T11:39:17;19.83;;;14.13;;
2213;SDS011;1113;42.018;23.986;2023-12-29T11:41:51;19.67;;;15.50;;
2213;SDS011;1113;42.018;23.986;2023-12-29T11:44:26;23.10;;;15.90;;
2213;SDS011;1113;42.018;23.986;2023-12-29T11:46:56;23.97;;;17.03;;
2213;SDS011;1113;42.018;23.986;2023-12-29T11:49:23;22.30;;;15.37;;
2213;SDS011;1113;42.018;23.986;2023-12-29T11:51:51;19.47;;;12.53;;
2213;SDS011;1113;42.018;23.986;2023-12-29T11:54:21;24.23;;;15.30;;
2213;SDS011;1113;42.018;23.986;2023-12-29T11:56:49;24.00;;;16.40;;
2213;SDS011;1113;42.018;23.986;2023-12-29T11:59:18;30.13;;;17.80;;
2213;SDS011;1113;42.018;23.986;2023-12-29T12:01:46;25.50;;;16.73;;
2213;SDS011;1113;42.018;23.986;2023-12-29T12:07:05;27.40;;;16.07;;
2213;SDS011;1113;42.018;23.986;2023-12-29T12:09:33;26.70;;;19.10;;
2213;SDS011;1113;42.018;23.986;2023-12-29T12:12:00;26.83;;;19.10;;
2213;SDS011;1113;42.018;23.986;2023-12-29T12:14:44;35.73;;;25.23;;
2213;SDS011;1113;42.018;23.986;2023-12-29T12:17:12;24.30;;;18.30;;
2213;SDS011;1113;42.018;23.986;2023-12-29T12:19:57;23.30;;;18.57;;
2213;SDS011;1113;42.018;23.986;2023-12-29T12:22:25;25.73;;;16.70;;
2213;SDS011;1113;42.018;23.986;2023-12-29T12:24:56;24.87;;;15.10;;
2213;SDS011;1113;42.018;23.986;2023-12-29T12:27:24;20.50;;;12.97;;
2213;SDS011;1113;42.018;23.986;2023-12-29T12:29:53;15.83;;;11.83;;
2213;SDS011;1113;42.018;23.986;2023-12-29T12:32:24;15.30;;;9.87;;
2213;SDS011;1113;42.018;23.986;2023-12-29T12:34:52;13.53;;;8.40;;
2213;SDS011;1113;42.018;23.986;2023-12-29T12:37:21;9.13;;;6.47;;
2213;SDS011;1113;42.018;23.986;2023-12-29T12:39:50;7.90;;;5.30;;
2213;SDS011;1113;42.018;23.986;2023-12-29T12:42:18;7.60;;;5.00;;
2213;SDS011;1113;42.018;23.986;2023-12-29T12:44:47;5.70;;;4.30;;
2213;SDS011;1113;42.018;23.986;2023-12-29T12:47:24;8.00;;;4.90;;
2213;SDS011;1113;42.018;23.986;2023-12-29T12:49:54;6.10;;;4.57;;
2213;SDS011;1113;42.018;23.986;2023-12-29T12:52:23;5.40;;;4.13;;
2213;SDS011;1113;42.018;23.986;2023-12-29T12:54:51;7.20;;;3.47;;
2213;SDS011;1113;42.018;23.986;2023-12-29T12:57:21;12.00;;;3.90;;
2213;SDS011;1113;42.018;23.986;2023-12-29T12:59:49;5.70;;;4.20;;
2213;SDS011;1113;42.018;23.986;2023-12-29T13:02:19;5.10;;;3.30;;
2213;SDS011;1113;42.018;23.986;2023-12-29T13:04:47;3.83;;;2.53;;
2213;SDS011;1113;42.018;23.986;2023-12-29T13:07:17;4.50;;;3.60;;
2213;SDS011;1113;42.018;23.986;2023-12-29T13:09:46;4.30;;;3.00;;
2213;SDS011;1113;42.018;23.986;2023-12-29T13:12:16;5.30;;;3.37;;
2213;SDS011;1113;42.018;23.986;2023-12-29T13:14:43;4.83;;;3.40;;
2213;SDS011;1113;42.018;23.986;2023-12-29T13:17:12;4.30;;;2.90;;
2213;SDS011;1113;42.018;23.986;2023-12-29T13:19:42;4.80;;;3.50;;
2213;SDS011;1113;42.018;23.986;2023-12-29T13:22:10;5.20;;;3.50;;
2213;SDS011;1113;42.018;23.986;2023-12-29T13:24:43;5.27;;;4.23;;
2213;SDS011;1113;42.018;23.986;2023-12-29T13:27:13;5.10;;;3.90;;
2213;SDS011;1113;42.018;23.986;2023-12-29T13:29:42;6.20;;;4.23;;
2213;SDS011;1113;42.018;23.986;2023-12-29T13:32:10;5.20;;;3.80;;
2213;SDS011;1113;42.018;23.986;2023-12-29T13:34:48;6.93;;;4.63;;
2213;SDS011;1113;42.018;23.986;2023-12-29T13:37:22;5.17;;;4.20;;
2213;SDS011;1113;42.018;23.986;2023-12-29T13:39:58;7.23;;;4.30;;
2213;SDS011;1113;42.018;23.986;2023-12-29T13:42:36;6.10;;;4.17;;
2213;SDS011;1113;42.018;23.986;2023-12-29T13:45:07;6.77;;;4.37;;
2213;SDS011;1113;42.018;23.986;2023-12-29T13:47:36;5.87;;;3.60;;
2213;SDS011;1113;42.018;23.986;2023-12-29T13:50:05;6.43;;;3.50;;
2213;SDS011;1113;42.018;23.986;2023-12-29T13:52:35;8.17;;;3.60;;
2213;SDS011;1113;42.018;23.986;2023-12-29T13:55:04;5.17;;;4.00;;
2213;SDS011;1113;42.018;23.986;2023-12-29T13:57:33;6.50;;;3.90;;
2213;SDS011;1113;42.018;23.986;2023-12-29T14:00:15;5.93;;;4.33;;
2213;SDS011;1113;42.018;23.986;2023-12-29T14:02:45;6.47;;;4.00;;
2213;SDS011;1113;42.018;23.986;2023-12-29T14:05:18;31.00;;;17.40;;
2213;SDS011;1113;42.018;23.986;2023-12-29T14:07:47;8.37;;;5.90;;
2213;SDS011;1113;42.018;23.986;2023-12-29T14:10:19;16.07;;;11.73;;
2213;SDS011;1113;42.018;23.986;2023-12-29T14:12:46;12.33;;;6.30;;
2213;SDS011;1113;42.018;23.986;2023-12-29T14:15:16;11.50;;;7.97;;
2213;SDS011;1113;42.018;23.986;2023-12-29T14:17:43;10.87;;;6.63;;
2213;SDS011;1113;42.018;23.986;2023-12-29T14:20:10;5.93;;;4.00;;
2213;SDS011;1113;42.018;23.986;2023-12-29T14:22:38;6.63;;;4.00;;
2213;SDS011;1113;42.018;23.986;2023-12-29T14:25:06;9.63;;;6.83;;
2213;SDS011;1113;42.018;23.986;2023-12-29T14:27:34;11.27;;;7.73;;
2213;SDS011;1113;42.018;23.986;2023-12-29T14:30:16;15.47;;;9.57;;
2213;SDS011;1113;42.018;23.986;2023-12-29T14:32:46;60.73;;;43.00;;
2213;SDS011;1113;42.018;23.986;2023-12-29T14:35:13;51.57;;;35.40;;
2213;SDS011;1113;42.018;23.986;2023-12-29T14:37:41;40.60;;;26.13;;
2213;SDS011;1113;42.018;23.986;2023-12-29T14:40:10;85.57;;;51.13;;
2213;SDS011;1113;42.018;23.986;2023-12-29T14:42:38;86.07;;;50.77;;
2213;SDS011;1113;42.018;23.986;2023-12-29T14:45:06;100.60;;;62.20;;
2213;SDS011;1113;42.018;23.986;2023-12-29T14:47:36;39.30;;;25.70;;
2213;SDS011;1113;42.018;23.986;2023-12-29T14:50:04;46.63;;;31.27;;
2213;SDS011;1113;42.018;23.986;2023-12-29T14:52:33;29.90;;;21.20;;